Time;durP1;ratioP1;P1;durP2;ratioP2;P2;SDS_P1;SDS_P2;PMS_P1;PMS_P2;Temp;Humidity;BMP_temperature;BMP_pressure;BME280_temperature;BME280_humidity;BME280_pressure;Samples;Min_cycle;Max_cycle;Signal;HPM_P1;HPM_P2
2021/11/07 00:02:02;;;;;;;20.60;14.93;;;;;;;9.59;100.00;101550.31;2603247;36;20050;-71
2021/11/07 00:04:42;;;;;;;21.95;16.20;;;;;;;9.60;100.00;101552.06;2597584;36;20943;-70
2021/11/07 00:07:19;;;;;;;24.23;17.13;;;;;;;9.64;100.00;101536.53;2615514;36;20059;-70
2021/11/07 00:09:58;;;;;;;23.58;17.48;;;;;;;9.69;100.00;101531.69;2598474;36;21151;-70
2021/11/07 00:12:28;;;;;;;26.92;18.80;;;;;;;9.68;100.00;101531.81;2600897;36;20034;-70
2021/11/07 00:14:57;;;;;;;26.25;17.63;;;;;;;9.72;100.00;101530.63;2600335;36;20541;-70
2021/11/07 00:17:29;;;;;;;26.45;17.73;;;;;;;9.70;100.00;101529.84;2601028;36;20933;-70
2021/11/07 00:20:05;;;;;;;28.77;20.30;;;;;;;9.69;100.00;101520.06;2601244;36;20038;-71
2021/11/07 00:22:43;;;;;;;30.58;17.98;;;;;;;9.76;100.00;101529.41;2598816;31;20593;-70
2021/11/07 00:25:20;;;;;;;26.95;17.75;;;;;;;9.73;100.00;101514.38;2599648;36;20396;-69
2021/11/07 00:27:51;;;;;;;28.80;20.60;;;;;;;9.73;100.00;101514.38;2599156;36;20034;-71
2021/11/07 00:30:27;;;;;;;28.05;20.15;;;;;;;9.76;100.00;101522.22;2601762;36;20546;-70
2021/11/07 00:33:07;;;;;;;29.73;20.83;;;;;;;9.80;100.00;101510.25;2600194;36;20078;-71
2021/11/07 00:35:56;;;;;;;28.50;20.35;;;;;;;9.78;100.00;101514.88;2600232;36;20038;-71
2021/11/07 00:38:31;;;;;;;27.65;18.58;;;;;;;9.86;100.00;101494.63;2619861;36;20039;-70
2021/11/07 00:41:08;;;;;;;25.55;19.45;;;;;;;9.83;100.00;101503.78;2597885;36;20134;-69
2021/11/07 00:43:41;;;;;;;28.77;19.92;;;;;;;9.87;100.00;101491.81;2598794;36;20270;-69
2021/11/07 00:46:16;;;;;;;28.15;20.70;;;;;;;9.90;100.00;101490.75;2601170;36;20130;-69
2021/11/07 00:48:55;;;;;;;25.40;20.40;;;;;;;9.94;100.00;101494.91;2600870;36;20455;-71
2021/11/07 00:51:30;;;;;;;29.00;18.75;;;;;;;9.98;100.00;101488.31;2618218;36;20137;-70
2021/11/07 00:54:57;;;;;;;26.15;17.92;;;;;;;10.02;100.00;101489.78;2599477;31;20031;-70
2021/11/07 01:26:02;;;;;;;36.15;17.90;;;;;;;10.34;100.00;101454.22;2603320;54;20038;-69
2021/11/07 01:34:40;;;;;;;27.98;16.80;;;;;;;10.39;100.00;101453.84;2620194;36;20421;-71
2021/11/07 01:40:30;;;;;;;35.03;19.58;;;;;;;10.50;100.00;101446.63;2607246;54;20749;-72
2021/11/07 01:43:07;;;;;;;27.52;16.42;;;;;;;10.49;100.00;101449.44;2622984;36;20515;-71
2021/11/07 01:46:00;;;;;;;36.13;15.55;;;;;;;10.51;100.00;101442.97;2618510;36;20559;-70
2021/11/07 01:51:31;;;;;;;32.22;14.43;;;;;;;10.55;100.00;101434.66;2616911;36;20030;-71
2021/11/07 01:54:25;;;;;;;32.13;13.82;;;;;;;10.57;100.00;101428.19;2601920;36;20038;-69
2021/11/07 01:57:14;;;;;;;;;;;;;;;;;;;;;
2021/11/07 01:59:55;;;;;;;24.38;11.80;;;;;;;10.62;100.00;101428.66;2601861;36;20121;-69
2021/11/07 02:03:07;;;;;;;;;;;;;;;;;;;;;
2021/11/07 02:11:12;;;;;;;30.30;10.90;;;;;;;10.66;100.00;101413.13;2604260;54;20045;-70
2021/11/07 02:14:22;;;;;;;30.15;10.45;;;;;;;10.68;100.00;101403.09;2617802;36;20466;-69
2021/11/07 02:22:16;;;;;;;33.20;10.55;;;;;;;10.72;100.00;101407.25;2599202;46;20307;-69
2021/11/07 02:45:22;;;;;;;28.77;8.48;;;;;;;10.65;100.00;101414.09;2645971;36;20030;-69
2021/11/07 03:21:23;;;;;;;19.30;5.13;;;;;;;10.21;100.00;101386.16;2646996;36;20049;-69
2021/11/07 03:37:30;;;;;;;23.70;5.15;;;;;;;9.86;100.00;101373.63;2607335;36;20038;-70
2021/11/07 03:40:06;;;;;;;22.88;5.43;;;;;;;9.77;100.00;101370.66;2620226;36;20164;-69
2021/11/07 03:57:04;;;;;;;21.10;4.63;;;;;;;9.49;100.00;101363.03;2630119;36;20875;-69
2021/11/07 04:02:56;;;;;;;28.50;4.85;;;;;;;9.38;100.00;101364.69;2645321;36;20030;-71
2021/11/07 04:06:02;;;;;;;20.17;4.45;;;;;;;9.31;100.00;101371.50;2628128;36;20172;-69
2021/11/07 04:09:16;;;;;;;18.17;5.18;;;;;;;9.31;100.00;101373.34;2628998;36;20038;-69
2021/11/07 04:12:20;;;;;;;19.85;4.18;;;;;;;9.29;100.00;101365.41;2610590;31;20030;-71
2021/11/07 04:15:06;;;;;;;25.60;4.88;;;;;;;9.30;100.00;101356.34;2610071;36;20065;-70
2021/11/07 04:17:41;;;;;;;26.67;5.40;;;;;;;9.33;100.00;101350.75;2611291;36;20030;-69
2021/11/07 04:20:26;;;;;;;27.20;4.38;;;;;;;9.29;100.00;101354.66;2629757;36;20031;-70
2021/11/07 05:17:41;;;;;;;14.15;3.50;;;;;;;8.32;100.00;101362.53;2612177;54;20565;-71
2021/11/07 05:20:38;;;;;;;16.48;3.35;;;;;;;8.35;100.00;101365.00;2646435;36;20035;-68
2021/11/07 05:26:20;;;;;;;12.80;3.10;;;;;;;8.42;100.00;101363.59;2615458;46;20585;-68
2021/11/07 05:29:04;;;;;;;15.63;3.70;;;;;;;8.42;100.00;101365.41;2632993;36;20038;-69
2021/11/07 05:34:23;;;;;;;11.32;3.83;;;;;;;8.19;100.00;101349.16;2632496;36;20129;-68
2021/11/07 05:42:17;;;;;;;21.85;4.63;;;;;;;8.25;100.00;101354.06;2610524;39;20431;-68
2021/11/07 05:47:29;;;;;;;16.95;3.22;;;;;;;8.27;100.00;101359.31;2629933;36;20081;-68
2021/11/07 05:50:27;;;;;;;19.03;4.30;;;;;;;8.19;100.00;101359.03;2629459;36;20161;-68
2021/11/07 05:53:05;;;;;;;13.98;3.63;;;;;;;8.20;100.00;101352.66;2611405;36;20475;-69
2021/11/07 05:55:55;;;;;;;17.67;3.72;;;;;;;8.11;100.00;101354.19;2601432;54;20034;-68
2021/11/07 06:02:08;;;;;;;19.40;4.30;;;;;;;7.97;100.00;101360.53;2629470;36;20070;-69
2021/11/07 06:07:29;;;;;;;17.45;3.78;;;;;;;7.99;100.00;101368.44;2612334;36;20046;-71
2021/11/07 06:12:54;;;;;;;25.08;4.03;;;;;;;8.14;100.00;101362.03;2613309;36;20030;-69
2021/11/07 06:18:20;;;;;;;19.10;4.00;;;;;;;8.23;100.00;101380.16;2649402;36;20037;-69
2021/11/07 06:46:40;;;;;;;16.02;3.78;;;;;;;8.43;100.00;101380.56;2611278;54;20046;-69
2021/11/07 07:47:27;;;;;;;16.10;3.05;;;;;;;8.85;100.00;101399.94;2632430;36;20030;-69
2021/11/07 07:50:08;;;;;;;21.38;3.80;;;;;;;8.93;100.00;101402.91;2631353;36;20508;-71
2021/11/07 07:53:05;;;;;;;12.07;3.17;;;;;;;8.97;100.00;101411.59;2631172;36;20595;-70
2021/11/07 07:55:41;;;;;;;19.13;3.13;;;;;;;8.97;100.00;101416.97;2613650;36;20030;-70
2021/11/07 08:24:31;;;;;;;17.20;3.97;;;;;;;9.41;100.00;101415.50;2628137;36;20543;-69
2021/11/07 08:28:00;;;;;;;12.27;3.42;;;;;;;9.38;100.00;101420.25;2629571;36;20034;-69
2021/11/07 08:41:59;;;;;;;15.65;3.25;;;;;;;9.05;100.00;101430.69;2610112;36;20153;-69
2021/11/07 09:12:17;;;;;;;20.48;3.55;;;;;;;9.81;100.00;101436.69;2611095;36;19958;-69
2021/11/07 09:14:48;;;;;;;17.52;3.83;;;;;;;9.64;100.00;101429.91;2629812;31;20514;-70
2021/11/07 09:25:02;;;;;;;11.60;2.42;;;;;;;9.40;100.00;101419.16;2611477;54;20050;-72
2021/11/07 09:28:45;;;;;;;10.52;2.53;;;;;;;9.59;100.00;101415.94;2627974;36;20034;-69
2021/11/07 09:32:04;;;;;;;11.65;2.50;;;;;;;9.75;100.00;101412.94;2646422;36;20075;-71
2021/11/07 09:45:26;;;;;;;11.10;2.72;;;;;;;10.10;100.00;101436.28;2644845;36;20058;-68
2021/11/07 09:52:08;;;;;;;8.73;2.80;;;;;;;10.14;100.00;101442.25;2628723;36;20045;-69
2021/11/07 09:57:50;;;;;;;16.40;3.70;;;;;;;10.44;100.00;101428.28;2610368;54;20034;-72
2021/11/07 10:00:22;;;;;;;18.80;3.65;;;;;;;10.67;100.00;101425.59;2611436;36;20404;-70
2021/11/07 10:02:57;;;;;;;20.27;3.15;;;;;;;10.74;100.00;101429.50;2611462;47;20050;-70
2021/11/07 10:05:28;;;;;;;14.85;3.50;;;;;;;10.66;100.00;101445.44;2629039;36;20030;-70
2021/11/07 10:08:25;;;;;;;17.00;3.28;;;;;;;10.56;100.00;101444.47;2628881;36;20045;-69
2021/11/07 10:11:26;;;;;;;;;;;;;;;;;;;;;
2021/11/07 10:43:55;;;;;;;17.55;3.95;;;;;;;9.05;100.00;101444.09;2611552;54;20031;-70
2021/11/07 11:29:39;;;;;;;16.30;3.55;;;;;;;10.34;100.00;101427.31;2628253;36;20106;-70
2021/11/07 11:32:14;;;;;;;24.70;4.80;;;;;;;10.48;100.00;101421.69;2628354;36;20057;-68
2021/11/07 11:34:57;;;;;;;20.02;3.85;;;;;;;10.43;100.00;101429.25;2612169;36;20037;-68
2021/11/07 11:37:33;;;;;;;23.77;3.70;;;;;;;10.23;100.00;101424.56;2611577;36;20031;-68
2021/11/07 11:46:04;;;;;;;26.42;3.97;;;;;;;10.44;100.00;101412.16;2610725;36;20034;-68
2021/11/07 11:57:58;;;;;;;14.75;3.63;;;;;;;10.37;100.00;101416.28;2609760;36;20046;-69
2021/11/07 12:00:52;;;;;;;19.02;3.72;;;;;;;10.29;100.00;101413.31;2611300;31;20435;-70
2021/11/07 12:06:31;;;;;;;16.80;3.72;;;;;;;10.15;100.00;101409.88;2611008;54;20030;-68
2021/11/07 12:09:34;;;;;;;18.42;3.70;;;;;;;9.98;100.00;101410.31;2628585;36;20031;-71
2021/11/07 12:12:08;;;;;;;19.45;3.80;;;;;;;9.80;100.00;101402.72;2610903;36;20053;-69
2021/11/07 12:15:27;;;;;;;20.42;4.43;;;;;;;9.88;100.00;101404.81;2612173;36;20459;-71
2021/11/07 12:18:09;;;;;;;15.82;2.67;;;;;;;10.08;100.00;101397.88;2609946;36;20037;-69
2021/11/07 12:20:46;;;;;;;16.60;3.28;;;;;;;10.10;100.00;101409.38;2630164;36;20466;-71
2021/11/07 12:26:00;;;;;;;18.30;3.45;;;;;;;10.07;100.00;101414.13;2614979;39;20434;-69
2021/11/07 12:28:53;;;;;;;22.98;4.05;;;;;;;10.08;100.00;101407.78;2629808;31;20026;-71
2021/11/07 12:33:58;;;;;;;14.98;3.40;;;;;;;10.64;100.00;101409.69;2611225;36;20042;-68
2021/11/07 12:40:30;;;;;;;22.60;3.95;;;;;;;10.94;100.00;101392.03;2610898;36;20034;-68
2021/11/07 12:42:26;;;;;;;24.98;3.83;;;;;;;10.93;100.00;101390.31;2629800;36;20030;-68
2021/11/07 12:45:28;;;;;;;29.58;4.55;;;;;;;10.74;100.00;101399.03;2610269;36;20034;-72
2021/11/07 12:48:03;;;;;;;26.17;4.53;;;;;;;10.71;100.00;101393.91;2611303;36;20184;-68
2021/11/07 12:50:51;;;;;;;25.92;4.47;;;;;;;10.73;100.00;101392.78;2612783;31;20606;-69
2021/11/07 12:53:31;;;;;;;31.75;4.85;;;;;;;10.78;100.00;101387.06;2611114;36;20030;-69
2021/11/07 12:56:15;;;;;;;14.95;2.97;;;;;;;10.78;100.00;101381.66;2610996;36;20043;-69
2021/11/07 12:58:53;;;;;;;26.05;4.65;;;;;;;10.55;100.00;101387.06;2628862;36;20069;-69
2021/11/07 13:01:27;;;;;;;26.48;5.70;;;;;;;10.42;100.00;101403.31;2610800;36;20034;-69
2021/11/07 13:04:48;;;;;;;24.48;5.15;;;;;;;10.31;100.00;101403.28;2611148;36;20042;-71
2021/11/07 13:16:38;;;;;;;14.80;3.78;;;;;;;10.44;100.00;101411.28;2609517;36;20011;-71
2021/11/07 13:19:18;;;;;;;20.92;4.57;;;;;;;10.43;100.00;101406.88;2610437;36;20034;-69
2021/11/07 13:22:13;;;;;;;20.90;4.72;;;;;;;10.46;100.00;101402.09;2613264;36;20030;-70
2021/11/07 13:24:56;;;;;;;25.00;4.47;;;;;;;10.39;100.00;101400.03;2612402;36;20054;-70
2021/11/07 13:27:27;;;;;;;22.98;4.32;;;;;;;10.22;100.00;101412.06;2612927;36;20041;-71
2021/11/07 13:30:02;;;;;;;16.92;3.85;;;;;;;10.07;100.00;101420.38;2612487;31;20483;-70
2021/11/07 13:32:34;;;;;;;20.73;3.90;;;;;;;10.02;100.00;101422.56;2612413;36;20030;-72
2021/11/07 13:35:10;;;;;;;16.20;3.72;;;;;;;10.00;100.00;101411.91;2612800;36;20041;-70
2021/11/07 13:37:43;;;;;;;21.63;3.45;;;;;;;10.26;100.00;101418.94;2612774;36;20031;-70
2021/11/07 13:40:18;;;;;;;16.75;3.55;;;;;;;10.49;100.00;101420.69;2612405;36;20060;-71
2021/11/07 13:45:27;;;;;;;21.35;3.53;;;;;;;10.69;100.00;101435.25;2612358;36;20061;-70
2021/11/07 13:48:00;;;;;;;20.55;4.00;;;;;;;10.80;100.00;101431.69;2612598;36;20030;-71
2021/11/07 13:50:32;;;;;;;17.90;4.15;;;;;;;10.73;100.00;101432.31;2612741;31;20030;-71
2021/11/07 13:53:02;;;;;;;19.63;3.55;;;;;;;10.64;100.00;101423.16;2612831;36;20031;-71
2021/11/07 13:55:33;;;;;;;19.95;4.47;;;;;;;10.46;100.00;101420.09;2612093;36;20551;-72
2021/11/07 13:58:12;;;;;;;14.95;3.25;;;;;;;10.37;100.00;101420.84;2612923;36;20065;-71
2021/11/07 14:00:41;;;;;;;15.95;3.20;;;;;;;10.42;100.00;101422.16;2612426;36;20169;-71
2021/11/07 14:03:13;;;;;;;16.57;4.00;;;;;;;10.36;100.00;101414.56;2612398;36;20057;-71
2021/11/07 14:05:49;;;;;;;23.35;4.65;;;;;;;10.27;100.00;101426.88;2612984;36;20147;-71
2021/11/07 14:08:17;;;;;;;23.75;4.45;;;;;;;10.34;100.00;101424.63;2613281;36;20524;-73
2021/11/07 14:13:24;;;;;;;20.50;4.60;;;;;;;10.39;100.00;101435.00;2612554;36;20030;-70
2021/11/07 14:15:53;;;;;;;18.98;4.20;;;;;;;10.29;100.00;101442.91;2612517;36;20030;-70
2021/11/07 14:18:29;;;;;;;24.77;4.75;;;;;;;10.35;100.00;101453.25;2612186;36;20069;-70
2021/11/07 14:21:00;;;;;;;23.00;4.03;;;;;;;10.29;100.00;101448.28;2612948;36;20660;-71
2021/11/07 14:23:35;;;;;;;18.15;3.92;;;;;;;10.33;100.00;101450.66;2612393;36;20109;-73
2021/11/07 14:26:10;;;;;;;24.80;4.55;;;;;;;10.34;100.00;101463.13;2612731;36;20037;-72
2021/11/07 14:28:56;;;;;;;20.80;3.60;;;;;;;10.23;100.00;101462.22;2612657;36;20030;-71
2021/11/07 14:31:28;;;;;;;20.17;3.50;;;;;;;10.23;100.00;101464.91;2610873;36;20031;-70
2021/11/07 14:34:03;;;;;;;16.58;3.20;;;;;;;10.30;100.00;101460.78;2612252;36;20034;-72
2021/11/07 14:36:45;;;;;;;23.63;4.30;;;;;;;10.24;100.00;101455.88;2630213;36;20037;-73
2021/11/07 14:39:26;;;;;;;19.38;4.03;;;;;;;10.08;100.00;101457.03;2609495;36;20052;-71
2021/11/07 14:42:21;;;;;;;22.05;4.35;;;;;;;9.90;100.00;101463.84;2611287;36;20126;-72
2021/11/07 14:44:55;;;;;;;23.33;4.60;;;;;;;9.87;100.00;101461.41;2612284;36;20432;-72
2021/11/07 14:47:28;;;;;;;24.33;4.95;;;;;;;9.77;100.00;101463.91;2611455;36;20481;-71
2021/11/07 14:50:25;;;;;;;20.45;4.80;;;;;;;9.73;100.00;101465.13;2612231;36;20034;-72
2021/11/07 14:53:04;;;;;;;24.02;4.53;;;;;;;9.71;100.00;101461.69;2611874;36;20069;-74
2021/11/07 14:55:38;;;;;;;32.70;4.07;;;;;;;9.63;100.00;101463.13;2611087;36;20034;-72
2021/11/07 15:04:02;;;;;;;23.95;4.35;;;;;;;9.67;100.00;101482.56;2629072;36;20562;-74
2021/11/07 15:06:37;;;;;;;23.73;4.68;;;;;;;9.63;100.00;101479.25;2611999;31;20771;-70
2021/11/07 15:09:14;;;;;;;18.65;4.57;;;;;;;9.63;100.00;101484.63;2611619;36;20418;-71
2021/11/07 15:12:07;;;;;;;25.20;4.78;;;;;;;9.51;100.00;101482.88;2612249;36;20482;-70
2021/11/07 15:14:45;;;;;;;23.80;4.55;;;;;;;9.30;100.00;101493.34;2612063;36;20062;-70
2021/11/07 15:17:52;;;;;;;23.58;5.05;;;;;;;9.19;100.00;101491.47;2612588;36;20436;-70
2021/11/07 15:20:28;;;;;;;25.35;4.68;;;;;;;9.16;100.00;101499.75;2612370;36;20034;-70
2021/11/07 15:23:07;;;;;;;18.83;4.45;;;;;;;9.09;100.00;101499.31;2611686;36;20038;-70
2021/11/07 15:28:19;;;;;;;15.85;4.15;;;;;;;9.04;100.00;101484.50;2611907;36;20145;-71
2021/11/07 15:46:21;;;;;;;10.65;3.75;;;;;;;8.56;100.00;101496.78;2610126;36;20944;-70
2021/11/07 15:52:17;;;;;;;15.77;3.00;;;;;;;8.51;100.00;101495.38;2610200;36;20030;-72
2021/11/07 15:55:28;;;;;;;14.07;3.70;;;;;;;8.48;100.00;101503.66;2628296;36;20502;-70
2021/11/07 15:58:45;;;;;;;14.35;3.38;;;;;;;8.48;100.00;101503.66;2610119;47;20042;-70
2021/11/07 16:04:44;;;;;;;14.40;3.10;;;;;;;8.46;100.00;101532.41;2609908;36;20038;-70
2021/11/07 16:10:22;;;;;;;16.85;3.28;;;;;;;8.45;100.00;101533.38;2609869;36;20031;-70
2021/11/07 16:18:58;;;;;;;13.60;3.53;;;;;;;8.14;100.00;101541.69;2644082;36;20078;-70
2021/11/07 16:21:29;;;;;;;15.23;2.65;;;;;;;8.09;100.00;101540.25;2609803;36;20387;-71
2021/11/07 16:27:02;;;;;;;13.70;2.90;;;;;;;7.96;100.00;101551.78;2628974;36;20030;-71
2021/11/07 16:35:59;;;;;;;10.02;3.10;;;;;;;7.79;100.00;101557.41;2611021;36;20034;-71
2021/11/07 16:38:31;;;;;;;16.80;5.40;;;;;;;7.82;100.00;101555.41;2610718;36;20035;-70
2021/11/07 16:49:31;;;;;;;14.48;3.28;;;;;;;7.68;100.00;101566.16;2610623;54;20030;-71
2021/11/07 16:52:18;;;;;;;14.40;4.95;;;;;;;7.69;100.00;101565.22;2611800;36;20034;-70
2021/11/07 16:58:15;;;;;;;16.70;3.72;;;;;;;7.71;100.00;101572.19;2610331;36;20022;-70
2021/11/07 17:00:48;;;;;;;11.10;3.88;;;;;;;7.66;100.00;101566.25;2626245;31;20034;-72
2021/11/07 17:03:24;;;;;;;11.43;3.45;;;;;;;7.66;100.00;101574.28;2627565;36;20161;-70
2021/11/07 17:06:15;;;;;;;15.55;3.83;;;;;;;7.66;100.00;101579.66;2611183;31;20795;-70
2021/11/07 17:08:59;;;;;;;18.42;6.30;;;;;;;7.66;100.00;101592.19;2628655;36;20073;-70
2021/11/07 17:11:29;;;;;;;18.63;6.35;;;;;;;7.70;100.00;101594.56;2610573;36;20073;-69
2021/11/07 17:14:02;;;;;;;12.27;4.50;;;;;;;7.79;100.00;101600.28;2610391;39;20547;-71
2021/11/07 17:19:56;;;;;;;13.77;3.35;;;;;;;7.87;100.00;101580.06;2608431;47;20061;-71
2021/11/07 17:55:37;;;;;;;21.65;4.43;;;;;;;6.59;100.00;101616.66;2609884;36;20563;-69
2021/11/07 17:58:06;;;;;;;17.60;3.67;;;;;;;6.58;100.00;101625.63;2610381;36;20047;-69
2021/11/07 18:00:55;;;;;;;16.33;3.35;;;;;;;6.53;100.00;101623.22;2611351;36;20054;-68
2021/11/07 18:03:23;;;;;;;20.27;3.70;;;;;;;6.60;100.00;101627.25;2611726;31;20510;-68
2021/11/07 18:08:37;;;;;;;22.38;3.95;;;;;;;6.42;100.00;101620.31;2612126;31;20034;-68
2021/11/07 18:11:08;;;;;;;18.75;3.30;;;;;;;6.31;100.00;101629.81;2612260;36;20415;-70
2021/11/07 18:13:37;;;;;;;19.10;3.53;;;;;;;6.28;100.00;101623.81;2612897;36;20035;-68
2021/11/07 18:16:08;;;;;;;22.92;4.75;;;;;;;6.23;100.00;101628.56;2611518;36;20031;-70
2021/11/07 18:18:43;;;;;;;21.63;7.80;;;;;;;6.20;100.00;101626.94;2611599;36;20153;-69
2021/11/07 18:21:12;;;;;;;17.75;4.75;;;;;;;6.19;100.00;101629.69;2612053;36;20042;-68
2021/11/07 18:23:44;;;;;;;22.73;4.53;;;;;;;6.13;100.00;101629.09;2612784;36;20067;-70
2021/11/07 18:26:17;;;;;;;21.63;5.30;;;;;;;6.15;100.00;101634.34;2612528;36;20045;-70
2021/11/07 18:28:47;;;;;;;22.95;5.25;;;;;;;6.11;100.00;101632.78;2612810;36;20126;-69
2021/11/07 18:31:17;;;;;;;14.48;4.25;;;;;;;6.08;100.00;101627.63;2613079;31;20034;-69
2021/11/07 18:33:46;;;;;;;27.25;5.75;;;;;;;6.10;100.00;101631.09;2611776;36;20434;-71
2021/11/07 18:36:14;;;;;;;19.77;5.97;;;;;;;6.16;100.00;101633.41;2612107;36;20551;-69
2021/11/07 18:38:47;;;;;;;21.35;6.03;;;;;;;6.17;100.00;101643.16;2611563;36;20078;-67
2021/11/07 18:41:15;;;;;;;15.52;5.50;;;;;;;6.06;100.00;101634.88;2612165;31;20053;-69
2021/11/07 18:43:45;;;;;;;22.05;4.25;;;;;;;6.04;100.00;101636.78;2612314;36;20045;-69
2021/11/07 18:46:14;;;;;;;19.85;4.88;;;;;;;6.02;100.00;101636.00;2611854;36;20034;-70
2021/11/07 18:48:45;;;;;;;23.38;4.55;;;;;;;6.01;100.00;101636.94;2612482;36;20061;-70
2021/11/07 18:51:14;;;;;;;27.00;5.60;;;;;;;6.04;100.00;101631.44;2613260;31;20035;-69
2021/11/07 18:53:42;;;;;;;;;;;;;;;5.96;100.00;101635.38;2612473;36;20547;-71
2021/11/07 18:56:10;;;;;;;24.20;6.35;;;;;;;5.91;100.00;101642.78;2611246;36;19985;-69
2021/11/07 18:58:39;;;;;;;20.15;5.80;;;;;;;5.79;100.00;101646.16;2612578;36;20091;-69
2021/11/07 19:01:07;;;;;;;21.55;5.13;;;;;;;5.75;100.00;101649.94;2610844;31;20034;-69
2021/11/07 19:03:36;;;;;;;23.20;5.33;;;;;;;5.71;100.00;101651.94;2611318;36;20065;-68
2021/11/07 19:06:07;;;;;;;20.20;5.38;;;;;;;5.65;100.00;101656.72;2610116;31;20065;-68
2021/11/07 19:08:35;;;;;;;16.00;4.95;;;;;;;5.63;100.00;101666.66;2608067;36;20133;-69
2021/11/07 19:11:03;;;;;;;16.17;5.53;;;;;;;5.58;100.00;101673.09;2610714;36;20065;-71
2021/11/07 19:13:32;;;;;;;17.90;4.82;;;;;;;5.53;100.00;101668.94;2610832;36;20048;-69
2021/11/07 19:16:00;;;;;;;16.75;4.70;;;;;;;5.49;100.00;101673.59;2610849;36;20137;-69
2021/11/07 19:18:31;;;;;;;18.27;4.82;;;;;;;5.42;100.00;101678.41;2610934;31;20544;-69
2021/11/07 19:20:59;;;;;;;19.60;6.25;;;;;;;5.36;100.00;101670.72;2610284;31;20035;-69
2021/11/07 19:23:30;;;;;;;17.33;5.03;;;;;;;5.41;100.00;101676.66;2611182;36;20423;-69
2021/11/07 19:25:59;;;;;;;18.75;5.32;;;;;;;5.43;100.00;101679.25;2610130;36;20065;-69
2021/11/07 19:28:27;;;;;;;15.13;4.65;;;;;;;5.42;100.00;101688.22;2611517;36;20042;-68
2021/11/07 19:30:56;;;;;;;23.63;6.25;;;;;;;5.36;100.00;101685.88;2611223;36;20506;-71
2021/11/07 19:33:25;;;;;;;24.17;8.35;;;;;;;5.31;100.00;101687.94;2611482;31;20030;-69
2021/11/07 19:35:55;;;;;;;17.25;5.85;;;;;;;5.32;100.00;101690.53;2611265;36;20035;-69
2021/11/07 19:38:23;;;;;;;15.70;5.45;;;;;;;5.34;100.00;101693.09;2610794;36;20431;-69
2021/11/07 19:40:54;;;;;;;16.30;5.22;;;;;;;5.25;100.00;101697.97;2628809;36;20145;-69
2021/11/07 19:43:25;;;;;;;16.08;5.65;;;;;;;5.22;100.00;101705.28;2610538;36;20034;-70
2021/11/07 19:45:57;;;;;;;23.15;5.43;;;;;;;5.20;100.00;101705.38;2610903;31;20030;-69
2021/11/07 19:48:32;;;;;;;20.45;6.38;;;;;;;5.14;100.00;101711.03;2611026;36;20030;-69
2021/11/07 19:51:01;;;;;;;19.02;6.03;;;;;;;5.14;100.00;101716.38;2611407;36;20035;-69
2021/11/07 19:53:29;;;;;;;18.08;6.65;;;;;;;5.12;100.00;101712.06;2610924;36;20041;-68
2021/11/07 19:56:00;;;;;;;17.65;6.95;;;;;;;5.08;100.00;101719.38;2610382;36;20165;-72
2021/11/07 19:58:28;;;;;;;17.45;6.55;;;;;;;5.07;100.00;101714.97;2611395;36;20038;-70
2021/11/07 20:01:15;;;;;;;24.27;6.30;;;;;;;5.11;100.00;101721.88;2611773;31;20538;-70
2021/11/07 20:04:15;;;;;;;27.30;7.20;;;;;;;5.07;100.00;101721.16;2610828;36;20030;-70
2021/11/07 20:09:27;;;;;;;15.15;5.70;;;;;;;4.98;100.00;101726.13;2610204;36;20034;-69
2021/11/07 20:12:01;;;;;;;14.68;5.15;;;;;;;5.06;100.00;101730.13;2609884;36;20035;-69
2021/11/07 20:14:35;;;;;;;21.63;8.38;;;;;;;4.95;100.00;101736.91;2609879;36;20057;-72
2021/11/07 20:17:05;;;;;;;18.92;5.90;;;;;;;4.90;100.00;101738.03;2609450;36;20041;-68
2021/11/07 20:19:34;;;;;;;13.82;4.97;;;;;;;4.87;100.00;101740.88;2609514;54;20037;-69
2021/11/07 20:22:02;;;;;;;27.02;6.70;;;;;;;4.88;100.00;101753.25;2610086;36;20031;-69
2021/11/07 20:24:34;;;;;;;18.88;6.13;;;;;;;4.80;100.00;101752.78;2609652;36;20031;-69
2021/11/07 20:27:06;;;;;;;17.67;6.35;;;;;;;4.82;100.00;101756.22;2610276;36;20687;-69
2021/11/07 20:29:38;;;;;;;19.85;5.68;;;;;;;4.88;100.00;101757.72;2610460;36;20049;-69
2021/11/07 20:32:10;;;;;;;24.35;5.43;;;;;;;4.96;100.00;101765.34;2609477;36;20035;-69
2021/11/07 20:34:41;;;;;;;21.13;5.97;;;;;;;5.05;100.00;101771.09;2610265;36;20439;-69
2021/11/07 20:37:11;;;;;;;19.38;6.28;;;;;;;5.06;100.00;101763.94;2609448;36;20048;-69
2021/11/07 20:39:42;;;;;;;24.92;5.55;;;;;;;5.05;100.00;101771.09;2609410;36;20045;-70
2021/11/07 20:42:16;;;;;;;19.60;6.18;;;;;;;5.13;100.00;101773.34;2609033;36;21001;-70
2021/11/07 20:44:49;;;;;;;29.50;6.72;;;;;;;5.12;100.00;101770.75;2609469;36;20069;-69
2021/11/07 20:52:52;;;;;;;28.80;6.93;;;;;;;5.34;100.00;101783.88;2611273;36;20457;-69
2021/11/07 20:55:25;;;;;;;24.25;7.80;;;;;;;5.33;100.00;101792.81;2611047;36;20052;-71
2021/11/07 20:58:06;;;;;;;18.48;6.28;;;;;;;5.36;100.00;101789.97;2610877;36;20126;-71
2021/11/07 21:00:42;;;;;;;26.70;6.70;;;;;;;5.49;100.00;101796.44;2611499;36;20146;-69
2021/11/07 21:03:21;;;;;;;26.77;7.18;;;;;;;5.44;100.00;101796.66;2610063;36;20044;-69
2021/11/07 21:05:50;;;;;;;26.08;5.47;;;;;;;5.59;100.00;101789.66;2611249;36;20130;-69
2021/11/07 21:08:26;;;;;;;25.80;5.88;;;;;;;5.56;100.00;101787.13;2610705;36;20053;-70
2021/11/07 21:10:58;;;;;;;23.25;5.03;;;;;;;5.59;100.00;101796.78;2610626;36;20053;-70
2021/11/07 21:13:32;;;;;;;26.15;5.95;;;;;;;5.57;100.00;101790.69;2610281;31;20057;-70
2021/11/07 21:16:15;;;;;;;28.80;8.57;;;;;;;5.61;100.00;101794.94;2610547;36;20031;-69
2021/11/07 21:19:00;;;;;;;20.20;5.20;;;;;;;5.67;100.00;101799.06;2609987;36;20069;-68
2021/11/07 21:29:45;;;;;;;20.67;5.20;;;;;;;5.69;100.00;101807.88;2608979;36;20038;-68
2021/11/07 21:32:14;;;;;;;32.40;10.15;;;;;;;5.72;100.00;101808.56;2610125;31;20555;-68
2021/11/07 21:38:02;;;;;;;24.23;5.80;;;;;;;5.70;100.00;101814.94;2610146;36;20034;-68
2021/11/07 21:40:37;;;;;;;23.13;5.75;;;;;;;5.73;100.00;101812.97;2607710;36;20034;-68
2021/11/07 21:48:34;;;;;;;21.45;6.07;;;;;;;5.65;100.00;101827.66;2608228;36;20042;-69
2021/11/07 21:51:03;;;;;;;27.13;6.03;;;;;;;5.64;100.00;101825.94;2609602;36;20034;-68
2021/11/07 21:53:52;;;;;;;19.45;4.80;;;;;;;5.78;100.00;101828.75;2608521;36;20141;-68
2021/11/07 21:56:21;;;;;;;;;;;;;;;5.78;100.00;101818.91;2609271;36;20149;-68
2021/11/07 21:58:50;;;;;;;22.23;8.50;;;;;;;5.87;100.00;101836.25;2610463;36;19950;-69
2021/11/07 22:04:01;;;;;;;25.13;7.90;;;;;;;5.93;100.00;101843.97;2611498;36;20471;-69
2021/11/07 22:06:45;;;;;;;32.97;7.25;;;;;;;5.94;100.00;101853.69;2611950;36;20114;-68
2021/11/07 22:09:14;;;;;;;25.13;5.63;;;;;;;6.01;100.00;101856.06;2612743;36;20435;-70
2021/11/07 22:12:05;;;;;;;19.75;5.03;;;;;;;6.06;100.00;101849.53;2614327;36;21305;-70
2021/11/07 22:17:49;;;;;;;26.90;5.18;;;;;;;6.14;100.00;101846.47;2608962;36;20030;-69
2021/11/07 22:20:24;;;;;;;25.40;4.60;;;;;;;6.21;100.00;101852.34;2606327;36;21641;-70
2021/11/07 22:22:58;;;;;;;25.92;4.45;;;;;;;6.25;100.00;101853.91;2604115;36;20065;-70
2021/11/07 22:25:36;;;;;;;14.77;3.78;;;;;;;6.30;100.00;101857.16;2609417;36;20038;-68
2021/11/07 22:28:05;;;;;;;19.13;4.18;;;;;;;6.31;100.00;101854.41;2610090;36;20574;-68
2021/11/07 22:30:40;;;;;;;19.02;3.63;;;;;;;6.35;100.00;101854.28;2610106;36;20125;-69
2021/11/07 22:36:04;;;;;;;19.55;3.92;;;;;;;6.51;100.00;101855.13;2610467;36;20041;-68
2021/11/07 22:39:03;;;;;;;23.40;4.10;;;;;;;6.55;100.00;101848.69;2609730;31;20057;-69
2021/11/07 22:49:06;;;;;;;20.95;4.40;;;;;;;6.70;100.00;101864.78;2611843;54;20307;-70
2021/11/07 22:51:42;;;;;;;22.80;3.88;;;;;;;6.66;100.00;101874.81;2610639;36;20054;-70
2021/11/07 22:54:22;;;;;;;13.32;3.50;;;;;;;6.69;100.00;101871.13;2611104;36;20550;-71
2021/11/07 23:00:16;;;;;;;20.40;4.15;;;;;;;6.63;100.00;101881.19;2611378;36;20448;-68